sensor_id;sensor_type;location;lat;lon;timestamp;P1;durP1;ratioP1;P2;durP2;ratioP2
37595;SDS011;23442;48.182;11.552;2022-08-19T00:01:25;41.85;;;8.55;;
37595;SDS011;23442;48.182;11.552;2022-08-19T00:03:52;21.70;;;5.97;;
37595;SDS011;23442;48.182;11.552;2022-08-19T00:06:18;32.78;;;7.97;;
37595;SDS011;23442;48.182;11.552;2022-08-19T00:08:44;21.55;;;6.32;;
37595;SDS011;23442;48.182;11.552;2022-08-19T00:11:11;39.97;;;9.70;;
37595;SDS011;23442;48.182;11.552;2022-08-19T00:13:38;38.47;;;8.88;;
37595;SDS011;23442;48.182;11.552;2022-08-19T00:16:05;19.27;;;5.50;;
37595;SDS011;23442;48.182;11.552;2022-08-19T00:18:32;24.23;;;6.22;;
37595;SDS011;23442;48.182;11.552;2022-08-19T00:20:58;27.17;;;7.47;;
37595;SDS011;23442;48.182;11.552;2022-08-19T00:23:25;22.70;;;6.60;;
37595;SDS011;23442;48.182;11.552;2022-08-19T00:25:52;53.28;;;11.27;;
37595;SDS011;23442;48.182;11.552;2022-08-19T00:28:18;18.40;;;6.43;;
37595;SDS011;23442;48.182;11.552;2022-08-19T00:30:45;28.48;;;7.78;;
37595;SDS011;23442;48.182;11.552;2022-08-19T00:33:11;19.83;;;6.20;;
37595;SDS011;23442;48.182;11.552;2022-08-19T00:35:38;26.05;;;7.63;;
37595;SDS011;23442;48.182;11.552;2022-08-19T00:38:05;23.55;;;7.80;;
37595;SDS011;23442;48.182;11.552;2022-08-19T00:40:31;27.13;;;8.85;;
37595;SDS011;23442;48.182;11.552;2022-08-19T00:42:58;27.88;;;8.43;;
37595;SDS011;23442;48.182;11.552;2022-08-19T00:45:25;76.63;;;15.32;;
37595;SDS011;23442;48.182;11.552;2022-08-19T00:47:52;15.40;;;6.93;;
37595;SDS011;23442;48.182;11.552;2022-08-19T00:50:19;43.00;;;12.15;;
37595;SDS011;23442;48.182;11.552;2022-08-19T00:52:47;22.48;;;7.82;;
37595;SDS011;23442;48.182;11.552;2022-08-19T00:55:16;32.15;;;9.73;;
37595;SDS011;23442;48.182;11.552;2022-08-19T00:57:51;25.02;;;8.82;;
37595;SDS011;23442;48.182;11.552;2022-08-19T01:00:25;30.02;;;9.48;;
37595;SDS011;23442;48.182;11.552;2022-08-19T01:02:52;30.58;;;10.48;;
37595;SDS011;23442;48.182;11.552;2022-08-19T01:05:21;42.17;;;12.02;;
37595;SDS011;23442;48.182;11.552;2022-08-19T01:07:50;27.17;;;9.55;;
37595;SDS011;23442;48.182;11.552;2022-08-19T01:10:17;33.33;;;10.40;;
37595;SDS011;23442;48.182;11.552;2022-08-19T01:12:46;38.78;;;11.18;;
37595;SDS011;23442;48.182;11.552;2022-08-19T01:15:14;34.53;;;10.85;;
37595;SDS011;23442;48.182;11.552;2022-08-19T01:17:42;25.85;;;9.50;;
37595;SDS011;23442;48.182;11.552;2022-08-19T01:20:10;27.10;;;9.98;;
37595;SDS011;23442;48.182;11.552;2022-08-19T01:22:48;33.00;;;10.85;;
37595;SDS011;23442;48.182;11.552;2022-08-19T01:25:18;48.38;;;13.65;;
37595;SDS011;23442;48.182;11.552;2022-08-19T01:27:48;39.72;;;12.63;;
37595;SDS011;23442;48.182;11.552;2022-08-19T01:30:16;29.55;;;10.05;;
37595;SDS011;23442;48.182;11.552;2022-08-19T01:32:50;13.02;;;7.65;;
37595;SDS011;23442;48.182;11.552;2022-08-19T01:35:21;34.15;;;11.85;;
37595;SDS011;23442;48.182;11.552;2022-08-19T01:37:51;33.88;;;12.52;;
37595;SDS011;23442;48.182;11.552;2022-08-19T01:40:25;26.63;;;10.57;;
37595;SDS011;23442;48.182;11.552;2022-08-19T01:42:54;26.70;;;10.52;;
37595;SDS011;23442;48.182;11.552;2022-08-19T01:45:21;19.65;;;9.40;;
37595;SDS011;23442;48.182;11.552;2022-08-19T01:47:51;38.58;;;12.85;;
37595;SDS011;23442;48.182;11.552;2022-08-19T01:50:18;38.15;;;12.65;;
37595;SDS011;23442;48.182;11.552;2022-08-19T01:52:44;23.73;;;9.57;;
37595;SDS011;23442;48.182;11.552;2022-08-19T01:57:43;30.88;;;10.55;;
37595;SDS011;23442;48.182;11.552;2022-08-19T02:00:14;31.05;;;11.20;;
37595;SDS011;23442;48.182;11.552;2022-08-19T02:02:42;18.58;;;8.98;;
37595;SDS011;23442;48.182;11.552;2022-08-19T02:05:09;36.80;;;12.25;;
37595;SDS011;23442;48.182;11.552;2022-08-19T02:07:36;23.75;;;9.88;;
37595;SDS011;23442;48.182;11.552;2022-08-19T02:10:03;37.20;;;12.13;;
37595;SDS011;23442;48.182;11.552;2022-08-19T02:12:36;39.03;;;11.95;;
37595;SDS011;23442;48.182;11.552;2022-08-19T02:15:03;53.78;;;14.32;;
37595;SDS011;23442;48.182;11.552;2022-08-19T02:17:31;21.67;;;8.95;;
37595;SDS011;23442;48.182;11.552;2022-08-19T02:19:58;39.63;;;11.90;;
37595;SDS011;23442;48.182;11.552;2022-08-19T02:22:25;38.25;;;11.80;;
37595;SDS011;23442;48.182;11.552;2022-08-19T02:24:52;50.90;;;14.32;;
37595;SDS011;23442;48.182;11.552;2022-08-19T02:27:19;44.22;;;12.55;;
37595;SDS011;23442;48.182;11.552;2022-08-19T02:29:46;58.88;;;14.10;;
37595;SDS011;23442;48.182;11.552;2022-08-19T02:32:14;18.08;;;7.97;;
37595;SDS011;23442;48.182;11.552;2022-08-19T02:34:41;19.38;;;7.95;;
37595;SDS011;23442;48.182;11.552;2022-08-19T02:37:07;32.20;;;10.23;;
37595;SDS011;23442;48.182;11.552;2022-08-19T02:39:53;28.35;;;8.90;;
37595;SDS011;23442;48.182;11.552;2022-08-19T02:42:19;36.00;;;10.07;;
37595;SDS011;23442;48.182;11.552;2022-08-19T02:44:46;21.23;;;8.20;;
37595;SDS011;23442;48.182;11.552;2022-08-19T02:47:12;17.85;;;7.20;;
37595;SDS011;23442;48.182;11.552;2022-08-19T02:49:40;24.48;;;8.27;;
37595;SDS011;23442;48.182;11.552;2022-08-19T02:52:06;16.83;;;7.10;;
37595;SDS011;23442;48.182;11.552;2022-08-19T02:54:32;18.48;;;6.95;;
37595;SDS011;23442;48.182;11.552;2022-08-19T02:56:59;27.65;;;8.82;;
37595;SDS011;23442;48.182;11.552;2022-08-19T02:59:25;28.50;;;8.48;;
37595;SDS011;23442;48.182;11.552;2022-08-19T03:01:54;18.55;;;7.38;;
37595;SDS011;23442;48.182;11.552;2022-08-19T03:04:20;41.65;;;11.00;;
37595;SDS011;23442;48.182;11.552;2022-08-19T03:06:48;28.45;;;9.10;;
37595;SDS011;23442;48.182;11.552;2022-08-19T03:09:14;24.38;;;8.82;;
37595;SDS011;23442;48.182;11.552;2022-08-19T03:11:41;22.73;;;7.75;;
37595;SDS011;23442;48.182;11.552;2022-08-19T03:14:08;31.08;;;9.05;;
37595;SDS011;23442;48.182;11.552;2022-08-19T03:16:40;25.02;;;8.38;;
37595;SDS011;23442;48.182;11.552;2022-08-19T03:19:10;23.70;;;8.10;;
37595;SDS011;23442;48.182;11.552;2022-08-19T03:21:36;30.42;;;8.98;;
37595;SDS011;23442;48.182;11.552;2022-08-19T03:24:04;21.23;;;7.70;;
37595;SDS011;23442;48.182;11.552;2022-08-19T03:26:32;26.98;;;8.73;;
37595;SDS011;23442;48.182;11.552;2022-08-19T03:29:01;26.58;;;8.18;;
37595;SDS011;23442;48.182;11.552;2022-08-19T03:31:28;19.92;;;7.43;;
37595;SDS011;23442;48.182;11.552;2022-08-19T03:33:55;16.15;;;6.78;;
37595;SDS011;23442;48.182;11.552;2022-08-19T03:36:23;31.83;;;10.23;;
37595;SDS011;23442;48.182;11.552;2022-08-19T03:39:00;28.92;;;9.80;;
37595;SDS011;23442;48.182;11.552;2022-08-19T03:41:27;29.38;;;9.70;;
37595;SDS011;23442;48.182;11.552;2022-08-19T03:44:00;25.60;;;8.95;;
37595;SDS011;23442;48.182;11.552;2022-08-19T03:46:27;30.67;;;9.30;;
37595;SDS011;23442;48.182;11.552;2022-08-19T03:48:55;36.83;;;10.20;;
37595;SDS011;23442;48.182;11.552;2022-08-19T03:53:56;28.45;;;9.05;;
37595;SDS011;23442;48.182;11.552;2022-08-19T03:56:24;43.63;;;11.27;;
37595;SDS011;23442;48.182;11.552;2022-08-19T03:58:52;35.88;;;10.27;;
37595;SDS011;23442;48.182;11.552;2022-08-19T04:01:20;38.75;;;11.43;;
37595;SDS011;23442;48.182;11.552;2022-08-19T04:03:48;23.13;;;8.68;;
37595;SDS011;23442;48.182;11.552;2022-08-19T04:06:15;36.47;;;10.68;;
37595;SDS011;23442;48.182;11.552;2022-08-19T04:08:44;30.58;;;9.68;;
37595;SDS011;23442;48.182;11.552;2022-08-19T04:11:12;18.30;;;7.75;;
37595;SDS011;23442;48.182;11.552;2022-08-19T04:13:42;28.15;;;9.45;;
37595;SDS011;23442;48.182;11.552;2022-08-19T04:16:09;32.70;;;10.82;;
37595;SDS011;23442;48.182;11.552;2022-08-19T04:18:36;26.73;;;8.95;;
37595;SDS011;23442;48.182;11.552;2022-08-19T04:21:03;21.23;;;8.43;;
37595;SDS011;23442;48.182;11.552;2022-08-19T04:23:30;33.92;;;10.70;;
37595;SDS011;23442;48.182;11.552;2022-08-19T04:25:56;44.60;;;11.57;;
37595;SDS011;23442;48.182;11.552;2022-08-19T04:28:23;33.53;;;10.75;;
37595;SDS011;23442;48.182;11.552;2022-08-19T04:30:51;31.83;;;10.57;;
37595;SDS011;23442;48.182;11.552;2022-08-19T04:33:20;22.55;;;8.48;;
37595;SDS011;23442;48.182;11.552;2022-08-19T04:35:48;40.17;;;11.15;;
37595;SDS011;23442;48.182;11.552;2022-08-19T04:38:16;41.00;;;11.00;;
37595;SDS011;23442;48.182;11.552;2022-08-19T04:40:45;15.68;;;7.63;;
37595;SDS011;23442;48.182;11.552;2022-08-19T04:43:33;40.13;;;11.32;;
37595;SDS011;23442;48.182;11.552;2022-08-19T04:46:05;34.83;;;10.98;;
37595;SDS011;23442;48.182;11.552;2022-08-19T04:48:37;29.65;;;10.07;;
37595;SDS011;23442;48.182;11.552;2022-08-19T04:51:08;33.22;;;10.45;;
37595;SDS011;23442;48.182;11.552;2022-08-19T04:53:37;32.47;;;10.73;;
37595;SDS011;23442;48.182;11.552;2022-08-19T04:56:06;37.42;;;11.75;;
37595;SDS011;23442;48.182;11.552;2022-08-19T04:58:35;31.77;;;10.75;;
37595;SDS011;23442;48.182;11.552;2022-08-19T05:01:02;30.02;;;10.70;;
37595;SDS011;23442;48.182;11.552;2022-08-19T05:03:29;30.38;;;10.35;;
37595;SDS011;23442;48.182;11.552;2022-08-19T05:06:03;43.20;;;12.63;;
37595;SDS011;23442;48.182;11.552;2022-08-19T05:08:35;28.75;;;9.60;;
37595;SDS011;23442;48.182;11.552;2022-08-19T05:11:07;33.25;;;11.27;;
37595;SDS011;23442;48.182;11.552;2022-08-19T05:13:37;21.95;;;8.50;;
37595;SDS011;23442;48.182;11.552;2022-08-19T05:16:03;48.42;;;13.05;;
37595;SDS011;23442;48.182;11.552;2022-08-19T05:18:30;33.95;;;11.15;;
37595;SDS011;23442;48.182;11.552;2022-08-19T05:21:15;37.60;;;12.35;;
37595;SDS011;23442;48.182;11.552;2022-08-19T05:24:08;31.77;;;10.27;;
37595;SDS011;23442;48.182;11.552;2022-08-19T05:26:35;17.42;;;8.93;;
37595;SDS011;23442;48.182;11.552;2022-08-19T05:29:02;23.38;;;8.65;;
37595;SDS011;23442;48.182;11.552;2022-08-19T05:31:29;24.35;;;9.25;;
37595;SDS011;23442;48.182;11.552;2022-08-19T05:33:55;25.52;;;9.82;;
37595;SDS011;23442;48.182;11.552;2022-08-19T05:36:23;18.80;;;8.73;;
37595;SDS011;23442;48.182;11.552;2022-08-19T05:38:53;21.52;;;9.07;;
37595;SDS011;23442;48.182;11.552;2022-08-19T05:41:20;20.40;;;9.60;;
37595;SDS011;23442;48.182;11.552;2022-08-19T05:43:54;24.67;;;10.13;;
37595;SDS011;23442;48.182;11.552;2022-08-19T05:46:23;26.55;;;10.45;;
37595;SDS011;23442;48.182;11.552;2022-08-19T05:48:50;29.52;;;10.63;;
37595;SDS011;23442;48.182;11.552;2022-08-19T05:51:16;19.38;;;9.13;;
37595;SDS011;23442;48.182;11.552;2022-08-19T05:53:43;32.50;;;11.35;;
37595;SDS011;23442;48.182;11.552;2022-08-19T05:56:11;29.02;;;10.75;;
37595;SDS011;23442;48.182;11.552;2022-08-19T05:58:40;30.75;;;11.13;;
37595;SDS011;23442;48.182;11.552;2022-08-19T06:01:11;37.65;;;12.43;;
37595;SDS011;23442;48.182;11.552;2022-08-19T06:03:39;30.77;;;11.30;;
37595;SDS011;23442;48.182;11.552;2022-08-19T06:06:06;42.22;;;12.38;;
37595;SDS011;23442;48.182;11.552;2022-08-19T06:08:34;35.60;;;11.73;;
37595;SDS011;23442;48.182;11.552;2022-08-19T06:14:05;28.83;;;11.52;;
37595;SDS011;23442;48.182;11.552;2022-08-19T06:16:34;31.92;;;12.55;;
37595;SDS011;23442;48.182;11.552;2022-08-19T06:19:03;36.75;;;12.13;;
37595;SDS011;23442;48.182;11.552;2022-08-19T06:21:31;32.85;;;11.80;;
37595;SDS011;23442;48.182;11.552;2022-08-19T06:23:58;29.70;;;11.45;;
37595;SDS011;23442;48.182;11.552;2022-08-19T06:26:25;16.83;;;10.45;;
37595;SDS011;23442;48.182;11.552;2022-08-19T06:28:51;24.75;;;11.20;;
37595;SDS011;23442;48.182;11.552;2022-08-19T06:31:19;21.38;;;10.90;;
37595;SDS011;23442;48.182;11.552;2022-08-19T06:33:47;30.88;;;13.18;;
37595;SDS011;23442;48.182;11.552;2022-08-19T06:36:25;24.33;;;12.27;;
37595;SDS011;23442;48.182;11.552;2022-08-19T06:38:54;32.22;;;12.57;;
37595;SDS011;23442;48.182;11.552;2022-08-19T06:41:27;28.65;;;13.00;;
37595;SDS011;23442;48.182;11.552;2022-08-19T06:43:57;34.63;;;13.40;;
37595;SDS011;23442;48.182;11.552;2022-08-19T06:46:23;32.13;;;13.10;;
37595;SDS011;23442;48.182;11.552;2022-08-19T06:48:50;32.03;;;14.50;;
37595;SDS011;23442;48.182;11.552;2022-08-19T06:51:18;39.42;;;15.48;;
37595;SDS011;23442;48.182;11.552;2022-08-19T06:53:45;41.80;;;15.48;;
37595;SDS011;23442;48.182;11.552;2022-08-19T06:56:13;35.15;;;14.73;;
37595;SDS011;23442;48.182;11.552;2022-08-19T06:58:40;29.02;;;13.68;;
37595;SDS011;23442;48.182;11.552;2022-08-19T07:01:06;37.08;;;14.75;;
37595;SDS011;23442;48.182;11.552;2022-08-19T07:03:33;37.00;;;15.20;;
37595;SDS011;23442;48.182;11.552;2022-08-19T07:06:09;43.92;;;16.27;;
37595;SDS011;23442;48.182;11.552;2022-08-19T07:08:36;39.67;;;15.65;;
37595;SDS011;23442;48.182;11.552;2022-08-19T07:11:14;43.67;;;16.05;;
37595;SDS011;23442;48.182;11.552;2022-08-19T07:13:43;31.20;;;14.02;;
37595;SDS011;23442;48.182;11.552;2022-08-19T07:16:15;32.85;;;14.85;;
37595;SDS011;23442;48.182;11.552;2022-08-19T07:18:43;31.98;;;14.52;;
37595;SDS011;23442;48.182;11.552;2022-08-19T07:21:13;30.52;;;15.52;;
37595;SDS011;23442;48.182;11.552;2022-08-19T07:23:41;41.40;;;17.42;;
37595;SDS011;23442;48.182;11.552;2022-08-19T07:26:15;47.08;;;17.08;;
37595;SDS011;23442;48.182;11.552;2022-08-19T07:28:44;36.28;;;16.95;;
37595;SDS011;23442;48.182;11.552;2022-08-19T07:31:12;37.30;;;16.42;;
37595;SDS011;23442;48.182;11.552;2022-08-19T07:33:39;39.75;;;17.45;;
37595;SDS011;23442;48.182;11.552;2022-08-19T07:36:08;39.22;;;16.30;;
37595;SDS011;23442;48.182;11.552;2022-08-19T07:38:36;43.88;;;18.85;;
37595;SDS011;23442;48.182;11.552;2022-08-19T07:41:04;51.17;;;20.10;;
37595;SDS011;23442;48.182;11.552;2022-08-19T07:43:30;43.95;;;18.65;;
37595;SDS011;23442;48.182;11.552;2022-08-19T07:45:57;68.25;;;23.92;;
37595;SDS011;23442;48.182;11.552;2022-08-19T07:48:26;44.55;;;19.75;;
37595;SDS011;23442;48.182;11.552;2022-08-19T07:50:57;43.90;;;19.70;;
37595;SDS011;23442;48.182;11.552;2022-08-19T07:53:26;43.20;;;19.67;;
37595;SDS011;23442;48.182;11.552;2022-08-19T07:55:53;53.03;;;22.55;;
37595;SDS011;23442;48.182;11.552;2022-08-19T07:58:19;51.35;;;22.60;;
37595;SDS011;23442;48.182;11.552;2022-08-19T08:00:47;47.75;;;21.42;;
37595;SDS011;23442;48.182;11.552;2022-08-19T08:03:16;42.95;;;21.33;;
37595;SDS011;23442;48.182;11.552;2022-08-19T08:05:43;65.68;;;23.63;;
37595;SDS011;23442;48.182;11.552;2022-08-19T08:08:30;39.55;;;20.90;;
37595;SDS011;23442;48.182;11.552;2022-08-19T08:11:16;48.25;;;20.58;;
37595;SDS011;23442;48.182;11.552;2022-08-19T08:13:43;47.78;;;24.05;;
37595;SDS011;23442;48.182;11.552;2022-08-19T08:16:09;53.88;;;22.73;;
37595;SDS011;23442;48.182;11.552;2022-08-19T08:18:35;55.92;;;23.23;;
37595;SDS011;23442;48.182;11.552;2022-08-19T08:21:15;44.83;;;20.60;;
37595;SDS011;23442;48.182;11.552;2022-08-19T08:23:41;49.00;;;21.10;;
37595;SDS011;23442;48.182;11.552;2022-08-19T08:26:07;47.35;;;21.83;;
37595;SDS011;23442;48.182;11.552;2022-08-19T08:28:33;48.38;;;22.23;;
37595;SDS011;23442;48.182;11.552;2022-08-19T08:31:00;57.67;;;23.48;;
37595;SDS011;23442;48.182;11.552;2022-08-19T08:33:27;59.45;;;24.35;;
37595;SDS011;23442;48.182;11.552;2022-08-19T08:35:54;71.57;;;26.25;;
37595;SDS011;23442;48.182;11.552;2022-08-19T08:38:21;48.22;;;21.50;;
37595;SDS011;23442;48.182;11.552;2022-08-19T08:40:52;37.58;;;20.60;;
37595;SDS011;23442;48.182;11.552;2022-08-19T08:48:39;48.47;;;21.85;;
37595;SDS011;23442;48.182;11.552;2022-08-19T08:51:12;43.85;;;21.13;;
37595;SDS011;23442;48.182;11.552;2022-08-19T08:53:40;39.08;;;19.60;;
37595;SDS011;23442;48.182;11.552;2022-08-19T08:56:09;44.70;;;20.92;;
37595;SDS011;23442;48.182;11.552;2022-08-19T09:01:10;45.47;;;21.95;;
37595;SDS011;23442;48.182;11.552;2022-08-19T09:03:38;52.05;;;23.75;;
37595;SDS011;23442;48.182;11.552;2022-08-19T09:08:37;51.72;;;23.77;;
37595;SDS011;23442;48.182;11.552;2022-08-19T09:11:18;47.05;;;22.33;;
37595;SDS011;23442;48.182;11.552;2022-08-19T09:14:09;44.97;;;22.20;;
37595;SDS011;23442;48.182;11.552;2022-08-19T09:16:41;43.97;;;22.27;;
37595;SDS011;23442;48.182;11.552;2022-08-19T09:19:08;50.13;;;22.77;;
37595;SDS011;23442;48.182;11.552;2022-08-19T09:21:35;48.47;;;22.20;;
37595;SDS011;23442;48.182;11.552;2022-08-19T09:24:03;48.75;;;23.55;;
37595;SDS011;23442;48.182;11.552;2022-08-19T09:29:00;49.92;;;22.98;;
37595;SDS011;23442;48.182;11.552;2022-08-19T09:31:29;59.05;;;25.13;;
37595;SDS011;23442;48.182;11.552;2022-08-19T09:33:57;57.22;;;24.42;;
37595;SDS011;23442;48.182;11.552;2022-08-19T09:36:25;42.30;;;22.27;;
37595;SDS011;23442;48.182;11.552;2022-08-19T09:38:54;49.40;;;22.27;;
37595;SDS011;23442;48.182;11.552;2022-08-19T09:41:21;46.17;;;23.20;;
37595;SDS011;23442;48.182;11.552;2022-08-19T09:43:50;36.40;;;20.70;;
37595;SDS011;23442;48.182;11.552;2022-08-19T09:46:18;44.63;;;22.58;;
37595;SDS011;23442;48.182;11.552;2022-08-19T09:48:46;46.45;;;24.13;;
37595;SDS011;23442;48.182;11.552;2022-08-19T09:51:17;58.38;;;24.95;;
37595;SDS011;23442;48.182;11.552;2022-08-19T09:53:48;57.42;;;22.65;;
37595;SDS011;23442;48.182;11.552;2022-08-19T09:56:16;52.90;;;22.35;;
37595;SDS011;23442;48.182;11.552;2022-08-19T09:58:43;44.08;;;20.60;;
37595;SDS011;23442;48.182;11.552;2022-08-19T10:01:14;49.53;;;21.10;;
37595;SDS011;23442;48.182;11.552;2022-08-19T10:03:46;41.80;;;19.55;;
37595;SDS011;23442;48.182;11.552;2022-08-19T10:06:16;47.35;;;19.88;;
37595;SDS011;23442;48.182;11.552;2022-08-19T10:08:42;36.50;;;17.83;;
37595;SDS011;23442;48.182;11.552;2022-08-19T10:11:09;36.08;;;18.42;;
37595;SDS011;23442;48.182;11.552;2022-08-19T10:13:35;46.90;;;19.92;;
37595;SDS011;23442;48.182;11.552;2022-08-19T10:16:03;36.45;;;18.02;;
37595;SDS011;23442;48.182;11.552;2022-08-19T10:18:33;43.58;;;19.77;;
37595;SDS011;23442;48.182;11.552;2022-08-19T10:21:09;42.45;;;18.88;;
37595;SDS011;23442;48.182;11.552;2022-08-19T10:23:39;42.17;;;18.60;;
37595;SDS011;23442;48.182;11.552;2022-08-19T10:26:11;39.47;;;16.35;;
37595;SDS011;23442;48.182;11.552;2022-08-19T10:28:45;32.38;;;16.70;;
37595;SDS011;23442;48.182;11.552;2022-08-19T10:31:13;42.83;;;18.35;;
37595;SDS011;23442;48.182;11.552;2022-08-19T10:33:42;39.63;;;16.98;;
37595;SDS011;23442;48.182;11.552;2022-08-19T10:36:10;39.40;;;16.45;;
37595;SDS011;23442;48.182;11.552;2022-08-19T10:38:42;38.10;;;16.67;;
37595;SDS011;23442;48.182;11.552;2022-08-19T10:43:39;41.00;;;17.63;;
37595;SDS011;23442;48.182;11.552;2022-08-19T10:46:11;32.67;;;15.52;;
37595;SDS011;23442;48.182;11.552;2022-08-19T10:48:38;29.25;;;14.93;;
37595;SDS011;23442;48.182;11.552;2022-08-19T10:51:06;31.95;;;14.73;;
37595;SDS011;23442;48.182;11.552;2022-08-19T10:53:51;33.90;;;13.93;;
37595;SDS011;23442;48.182;11.552;2022-08-19T10:56:18;29.67;;;14.45;;
37595;SDS011;23442;48.182;11.552;2022-08-19T10:59:03;32.20;;;14.60;;
37595;SDS011;23442;48.182;11.552;2022-08-19T11:01:30;38.30;;;16.13;;
37595;SDS011;23442;48.182;11.552;2022-08-19T11:03:58;41.53;;;16.50;;
37595;SDS011;23442;48.182;11.552;2022-08-19T11:06:28;39.20;;;15.95;;
37595;SDS011;23442;48.182;11.552;2022-08-19T11:08:58;34.20;;;14.20;;
37595;SDS011;23442;48.182;11.552;2022-08-19T11:11:25;32.92;;;13.85;;
37595;SDS011;23442;48.182;11.552;2022-08-19T11:13:51;29.25;;;12.02;;
37595;SDS011;23442;48.182;11.552;2022-08-19T11:16:25;29.13;;;11.35;;
37595;SDS011;23442;48.182;11.552;2022-08-19T11:18:53;36.97;;;12.07;;
37595;SDS011;23442;48.182;11.552;2022-08-19T11:24:09;42.50;;;12.15;;
37595;SDS011;23442;48.182;11.552;2022-08-19T11:26:40;34.10;;;11.40;;
37595;SDS011;23442;48.182;11.552;2022-08-19T11:29:08;28.27;;;8.65;;
37595;SDS011;23442;48.182;11.552;2022-08-19T11:31:37;31.50;;;8.45;;
37595;SDS011;23442;48.182;11.552;2022-08-19T11:34:06;30.27;;;8.77;;
37595;SDS011;23442;48.182;11.552;2022-08-19T11:36:33;38.92;;;8.70;;
37595;SDS011;23442;48.182;11.552;2022-08-19T11:39:03;25.60;;;6.45;;
37595;SDS011;23442;48.182;11.552;2022-08-19T11:41:30;32.47;;;7.28;;
37595;SDS011;23442;48.182;11.552;2022-08-19T11:43:57;30.58;;;7.53;;
37595;SDS011;23442;48.182;11.552;2022-08-19T11:46:25;31.73;;;8.02;;
37595;SDS011;23442;48.182;11.552;2022-08-19T11:48:54;25.08;;;6.68;;
37595;SDS011;23442;48.182;11.552;2022-08-19T11:51:22;29.08;;;6.68;;
37595;SDS011;23442;48.182;11.552;2022-08-19T11:53:55;20.67;;;5.28;;
37595;SDS011;23442;48.182;11.552;2022-08-19T11:56:23;25.80;;;5.65;;
37595;SDS011;23442;48.182;11.552;2022-08-19T11:58:51;25.42;;;6.05;;
37595;SDS011;23442;48.182;11.552;2022-08-19T12:01:18;18.13;;;4.45;;
37595;SDS011;23442;48.182;11.552;2022-08-19T12:03:47;25.15;;;6.28;;
37595;SDS011;23442;48.182;11.552;2022-08-19T12:06:19;22.30;;;5.55;;
37595;SDS011;23442;48.182;11.552;2022-08-19T12:08:54;21.88;;;4.85;;
37595;SDS011;23442;48.182;11.552;2022-08-19T12:11:24;23.30;;;5.40;;
37595;SDS011;23442;48.182;11.552;2022-08-19T12:13:51;30.15;;;5.95;;
37595;SDS011;23442;48.182;11.552;2022-08-19T12:16:19;24.67;;;5.25;;
37595;SDS011;23442;48.182;11.552;2022-08-19T12:18:48;21.98;;;4.82;;
37595;SDS011;23442;48.182;11.552;2022-08-19T12:21:16;25.75;;;5.35;;
37595;SDS011;23442;48.182;11.552;2022-08-19T12:23:46;30.42;;;6.47;;
37595;SDS011;23442;48.182;11.552;2022-08-19T12:26:14;20.10;;;4.63;;
37595;SDS011;23442;48.182;11.552;2022-08-19T12:28:43;35.33;;;6.55;;
37595;SDS011;23442;48.182;11.552;2022-08-19T12:31:10;20.38;;;4.28;;
37595;SDS011;23442;48.182;11.552;2022-08-19T12:33:37;32.50;;;6.38;;
37595;SDS011;23442;48.182;11.552;2022-08-19T12:36:04;32.70;;;7.38;;
37595;SDS011;23442;48.182;11.552;2022-08-19T12:38:32;27.00;;;5.85;;
37595;SDS011;23442;48.182;11.552;2022-08-19T12:40:59;34.75;;;6.72;;
37595;SDS011;23442;48.182;11.552;2022-08-19T12:43:26;24.63;;;5.15;;
37595;SDS011;23442;48.182;11.552;2022-08-19T12:45:52;40.08;;;7.85;;
37595;SDS011;23442;48.182;11.552;2022-08-19T12:48:18;27.88;;;5.57;;
37595;SDS011;23442;48.182;11.552;2022-08-19T12:50:44;29.40;;;5.63;;
37595;SDS011;23442;48.182;11.552;2022-08-19T12:53:11;26.08;;;5.10;;
37595;SDS011;23442;48.182;11.552;2022-08-19T12:55:38;21.13;;;4.32;;
37595;SDS011;23442;48.182;11.552;2022-08-19T12:58:04;18.75;;;4.05;;
37595;SDS011;23442;48.182;11.552;2022-08-19T13:00:30;19.35;;;4.03;;
37595;SDS011;23442;48.182;11.552;2022-08-19T13:02:57;24.30;;;4.75;;
37595;SDS011;23442;48.182;11.552;2022-08-19T13:05:26;26.17;;;5.03;;
37595;SDS011;23442;48.182;11.552;2022-08-19T13:07:54;17.00;;;3.83;;
37595;SDS011;23442;48.182;11.552;2022-08-19T13:10:21;33.80;;;6.55;;
37595;SDS011;23442;48.182;11.552;2022-08-19T13:12:50;25.50;;;4.72;;
37595;SDS011;23442;48.182;11.552;2022-08-19T13:15:18;26.88;;;5.10;;
37595;SDS011;23442;48.182;11.552;2022-08-19T13:17:46;30.17;;;5.80;;
37595;SDS011;23442;48.182;11.552;2022-08-19T13:20:15;46.22;;;8.20;;
37595;SDS011;23442;48.182;11.552;2022-08-19T13:22:42;33.78;;;6.32;;
37595;SDS011;23442;48.182;11.552;2022-08-19T13:25:10;19.15;;;3.95;;
37595;SDS011;23442;48.182;11.552;2022-08-19T13:27:38;27.50;;;5.07;;
37595;SDS011;23442;48.182;11.552;2022-08-19T13:30:05;29.13;;;5.78;;
37595;SDS011;23442;48.182;11.552;2022-08-19T13:32:50;28.25;;;5.55;;
37595;SDS011;23442;48.182;11.552;2022-08-19T13:35:35;13.77;;;3.53;;
37595;SDS011;23442;48.182;11.552;2022-08-19T13:38:06;26.20;;;5.00;;
37595;SDS011;23442;48.182;11.552;2022-08-19T13:40:33;23.67;;;4.75;;
37595;SDS011;23442;48.182;11.552;2022-08-19T13:43:00;34.10;;;6.60;;
37595;SDS011;23442;48.182;11.552;2022-08-19T13:45:29;28.17;;;5.90;;
37595;SDS011;23442;48.182;11.552;2022-08-19T13:47:58;37.20;;;7.60;;
37595;SDS011;23442;48.182;11.552;2022-08-19T13:50:28;29.27;;;6.85;;
37595;SDS011;23442;48.182;11.552;2022-08-19T13:52:56;36.92;;;7.25;;
37595;SDS011;23442;48.182;11.552;2022-08-19T13:55:23;21.67;;;5.13;;
37595;SDS011;23442;48.182;11.552;2022-08-19T13:57:50;23.63;;;5.63;;
37595;SDS011;23442;48.182;11.552;2022-08-19T14:00:17;26.88;;;6.15;;
37595;SDS011;23442;48.182;11.552;2022-08-19T14:02:44;28.80;;;6.13;;
37595;SDS011;23442;48.182;11.552;2022-08-19T14:05:12;22.15;;;5.45;;
37595;SDS011;23442;48.182;11.552;2022-08-19T14:07:40;19.85;;;5.43;;
37595;SDS011;23442;48.182;11.552;2022-08-19T14:10:07;24.10;;;6.28;;
37595;SDS011;23442;48.182;11.552;2022-08-19T14:12:35;24.73;;;5.90;;
37595;SDS011;23442;48.182;11.552;2022-08-19T14:15:02;24.02;;;5.93;;
37595;SDS011;23442;48.182;11.552;2022-08-19T14:17:29;33.53;;;7.53;;
37595;SDS011;23442;48.182;11.552;2022-08-19T14:19:56;37.03;;;8.38;;
37595;SDS011;23442;48.182;11.552;2022-08-19T14:22:29;32.92;;;7.30;;
37595;SDS011;23442;48.182;11.552;2022-08-19T14:24:56;33.40;;;7.88;;
37595;SDS011;23442;48.182;11.552;2022-08-19T14:27:23;42.55;;;9.25;;
37595;SDS011;23442;48.182;11.552;2022-08-19T14:29:50;38.50;;;8.77;;
37595;SDS011;23442;48.182;11.552;2022-08-19T14:32:17;23.30;;;6.00;;
37595;SDS011;23442;48.182;11.552;2022-08-19T14:34:43;19.02;;;6.05;;
37595;SDS011;23442;48.182;11.552;2022-08-19T14:37:12;21.17;;;6.32;;
37595;SDS011;23442;48.182;11.552;2022-08-19T14:39:39;28.42;;;7.03;;
37595;SDS011;23442;48.182;11.552;2022-08-19T14:42:07;25.85;;;6.63;;
37595;SDS011;23442;48.182;11.552;2022-08-19T14:44:34;28.38;;;6.82;;
37595;SDS011;23442;48.182;11.552;2022-08-19T14:47:00;40.65;;;8.32;;
37595;SDS011;23442;48.182;11.552;2022-08-19T14:49:26;14.35;;;4.90;;